Time;durP1;ratioP1;P1;durP2;ratioP2;P2;SDS_P1;SDS_P2;PMS_P1;PMS_P2;Temp;Humidity;BMP_temperature;BMP_pressure;BME280_temperature;BME280_humidity;BME280_pressure;Samples;Min_cycle;Max_cycle;Signal;HPM_P1;HPM_P2
2023/01/27 00:00:38;;;;;;;45.65;34.76;;;;;;;-3.68;55.52;101799.05;455398;115;922554;-71
2023/01/27 00:01:42;;;;;;;42.31;33.33;;;;;;;-3.67;55.69;101799.91;454450;116;922485;-71
2023/01/27 00:02:45;;;;;;;41.26;32.75;;;;;;;-3.67;55.87;101791.91;455693;116;922861;-70
2023/01/27 00:03:49;;;;;;;38.34;33.08;;;;;;;-3.65;56.05;101788.22;455164;116;922497;-71
2023/01/27 00:04:52;;;;;;;36.56;31.64;;;;;;;-3.61;56.26;101794.20;455627;116;922403;-71
2023/01/27 00:05:57;;;;;;;35.58;31.84;;;;;;;-3.59;56.37;101792.31;455540;114;922780;-71
2023/01/27 00:07:00;;;;;;;40.22;31.54;;;;;;;-3.57;56.37;101788.58;454109;116;922448;-70
2023/01/27 00:08:04;;;;;;;40.58;32.26;;;;;;;-3.55;56.41;101784.02;445801;116;922506;-71
2023/01/27 00:09:07;;;;;;;40.66;32.81;;;;;;;-3.53;56.47;101786.60;457157;116;922576;-71
2023/01/27 00:10:12;;;;;;;43.19;33.16;;;;;;;-3.50;56.65;101787.26;457333;115;930762;-70
2023/01/27 00:13:59;;;;;;;39.74;31.06;;;;;;;-3.50;56.39;101789.06;454842;116;922951;-71
2023/01/27 00:15:02;;;;;;;42.78;32.61;;;;;;;-3.53;56.35;101790.09;455789;116;923113;-71
2023/01/27 00:16:06;;;;;;;36.19;32.28;;;;;;;-3.54;56.48;101785.74;455706;116;922593;-71
2023/01/27 00:17:09;;;;;;;39.00;31.55;;;;;;;-3.53;56.54;101790.09;454856;116;922499;-70
2023/01/27 00:18:13;;;;;;;43.13;33.21;;;;;;;-3.52;56.62;101778.48;454860;114;930408;-72
2023/01/27 00:19:19;;;;;;;41.48;34.67;;;;;;;-3.49;56.74;101774.79;455650;116;922710;-71
2023/01/27 00:24:35;;;;;;;38.77;31.54;;;;;;;-3.38;57.16;101777.64;457294;116;922933;-71
2023/01/27 00:25:40;;;;;;;37.63;32.73;;;;;;;-3.37;57.16;101782.88;457319;116;922660;-71
2023/01/27 00:26:43;;;;;;;37.15;31.21;;;;;;;-3.35;57.07;101777.43;456679;114;922470;-71
2023/01/27 00:27:47;;;;;;;39.51;32.55;;;;;;;-3.33;57.16;101767.53;454433;114;922449;-71
2023/01/27 00:28:51;;;;;;;32.53;28.99;;;;;;;-3.32;57.07;101771.92;456699;115;923154;-70
2023/01/27 00:29:54;;;;;;;36.60;29.96;;;;;;;-3.29;57.10;101766.38;455235;116;922576;-71
2023/01/27 00:30:58;;;;;;;35.00;30.30;;;;;;;-3.26;57.07;101773.34;455324;116;922464;-71
2023/01/27 00:33:26;;;;;;;36.24;31.21;;;;;;;-3.23;57.10;101763.33;456745;114;922956;-70
2023/01/27 00:34:29;;;;;;;35.78;31.85;;;;;;;-3.22;57.20;101765.05;457305;116;922507;-70
2023/01/27 00:35:33;;;;;;;37.89;33.60;;;;;;;-3.20;57.03;101763.15;457374;116;922838;-70
2023/01/27 00:36:38;;;;;;;37.83;33.56;;;;;;;-3.20;57.10;101763.15;457394;115;922489;-71
2023/01/27 00:37:44;;;;;;;37.07;32.42;;;;;;;-3.19;56.95;101759.50;457091;114;922583;-71
2023/01/27 00:38:47;;;;;;;39.77;32.33;;;;;;;-3.19;56.87;101762.17;449435;117;922613;-72
2023/01/27 00:39:50;;;;;;;37.94;33.76;;;;;;;-3.18;56.95;101768.36;449705;118;922452;-71
2023/01/27 00:42:15;;;;;;;40.12;32.78;;;;;;;-3.17;56.83;101773.61;451341;116;922629;-72
2023/01/27 00:43:18;;;;;;;40.73;32.99;;;;;;;-3.18;56.58;101763.03;456628;114;922787;-72
2023/01/27 00:44:22;;;;;;;41.59;32.93;;;;;;;-3.21;56.43;101768.58;457464;116;923014;-71
2023/01/27 00:46:47;;;;;;;34.72;30.73;;;;;;;-3.30;56.07;101767.33;445308;118;922662;-71
2023/01/27 00:47:54;;;;;;;40.98;31.76;;;;;;;-3.39;55.91;101759.92;449795;115;922562;-70
2023/01/27 00:48:58;;;;;;;35.73;31.05;;;;;;;-3.44;56.03;101767.36;457468;115;922404;-70
2023/01/27 00:50:01;;;;;;;36.96;31.29;;;;;;;-3.50;56.02;101768.59;457702;116;922806;-70
2023/01/27 00:51:04;;;;;;;41.33;31.73;;;;;;;-3.54;55.89;101772.41;457652;115;922572;-71
2023/01/27 00:52:07;;;;;;;41.93;31.84;;;;;;;-3.59;55.86;101763.84;458614;115;922435;-70
2023/01/27 00:53:10;;;;;;;34.89;30.88;;;;;;;-3.63;55.73;101772.11;455694;114;922823;-70
2023/01/27 00:54:13;;;;;;;38.54;32.11;;;;;;;-3.69;55.70;101764.52;453204;117;922494;-70
2023/01/27 00:55:17;;;;;;;35.91;30.53;;;;;;;-3.73;55.88;101766.49;454433;116;923093;-70
2023/01/27 00:56:20;;;;;;;36.76;30.15;;;;;;;-3.74;56.03;101766.58;457654;116;922670;-70
2023/01/27 00:57:24;;;;;;;42.15;31.63;;;;;;;-3.76;56.11;101766.70;457463;116;929767;-70
2023/01/27 00:58:28;;;;;;;36.74;30.37;;;;;;;-3.75;56.37;101765.75;456931;114;930310;-71
2023/01/27 00:59:31;;;;;;;33.89;30.11;;;;;;;-3.74;56.46;101762.11;457312;116;922589;-70
2023/01/27 01:00:34;;;;;;;40.39;32.11;;;;;;;-3.70;56.68;101768.13;455498;116;930442;-71
2023/01/27 01:01:39;;;;;;;43.32;32.26;;;;;;;-3.68;56.80;101768.87;455872;116;922827;-71
2023/01/27 01:02:47;;;;;;;39.95;33.49;;;;;;;-3.66;56.87;101750.98;457134;114;922498;-71
2023/01/27 01:03:47;;;;;;;43.63;34.41;;;;;;;-3.64;56.93;101752.63;452314;116;923173;-71
2023/01/27 01:04:51;;;;;;;48.24;34.25;;;;;;;-3.61;56.98;101746.22;447905;118;922495;-71
2023/01/27 01:05:54;;;;;;;47.53;35.40;;;;;;;-3.59;56.95;101747.86;448060;116;930315;-71
2023/01/27 01:06:57;;;;;;;43.01;35.05;;;;;;;-3.57;56.87;101742.41;448024;118;922796;-71
2023/01/27 01:08:00;;;;;;;45.06;36.33;;;;;;;-3.55;56.78;101748.51;449357;115;922719;-71
2023/01/27 01:09:04;;;;;;;45.19;35.56;;;;;;;-3.56;56.78;101747.65;443301;119;922910;-71
2023/01/27 01:10:08;;;;;;;49.16;36.40;;;;;;;-3.55;56.84;101745.84;443587;117;930414;-71
2023/01/27 01:11:14;;;;;;;48.61;37.12;;;;;;;-3.55;56.75;101743.18;451096;117;922861;-72
2023/01/27 01:12:18;;;;;;;48.27;37.34;;;;;;;-3.54;56.89;101739.56;453418;115;922788;-72
2023/01/27 01:13:21;;;;;;;44.04;36.15;;;;;;;-3.52;56.91;101740.30;452400;116;922787;-71
2023/01/27 01:14:25;;;;;;;51.25;37.65;;;;;;;-3.50;56.94;101736.61;452105;116;922585;-69
2023/01/27 01:15:28;;;;;;;52.59;37.26;;;;;;;-3.49;56.82;101740.98;448001;118;922554;-70
2023/01/27 01:16:31;;;;;;;49.99;36.57;;;;;;;-3.48;56.76;101740.05;454220;116;922826;-69
2023/01/27 01:17:41;;;;;;;44.48;36.43;;;;;;;-3.47;56.84;101733.73;455568;115;922434;-70
2023/01/27 01:18:42;;;;;;;47.73;36.01;;;;;;;-3.45;56.77;101744.31;452132;115;922879;-71
2023/01/27 01:19:45;;;;;;;46.02;36.22;;;;;;;-3.44;56.78;101748.69;451105;117;922498;-70
2023/01/27 01:20:48;;;;;;;49.94;35.00;;;;;;;-3.44;56.67;101749.55;451120;117;922698;-71
2023/01/27 01:21:52;;;;;;;40.86;33.01;;;;;;;-3.44;56.78;101738.03;450435;117;922890;-71
2023/01/27 01:22:56;;;;;;;42.56;33.44;;;;;;;-3.43;56.68;101737.08;449696;116;922494;-70
2023/01/27 01:24:00;;;;;;;42.55;33.74;;;;;;;-3.42;56.62;101741.47;455253;115;923005;-71
2023/01/27 01:25:06;;;;;;;45.17;34.71;;;;;;;-3.41;56.61;101743.16;455153;116;922508;-72
2023/01/27 01:26:10;;;;;;;48.35;36.56;;;;;;;-3.41;56.72;101751.16;447807;118;923223;-71
2023/01/27 01:27:13;;;;;;;46.17;36.17;;;;;;;-3.40;56.70;101742.20;447760;116;922746;-71
2023/01/27 01:28:16;;;;;;;46.04;35.68;;;;;;;-3.41;56.69;101743.16;451775;116;922912;-72
2023/01/27 01:29:22;;;;;;;43.44;33.79;;;;;;;-3.40;56.64;101742.20;455334;116;922578;-71
2023/01/27 01:30:26;;;;;;;44.98;34.73;;;;;;;-3.41;56.65;101740.48;455151;116;922545;-71
2023/01/27 01:31:29;;;;;;;48.15;35.00;;;;;;;-3.40;56.60;101737.73;455160;116;923018;-71
2023/01/27 01:32:32;;;;;;;46.88;34.88;;;;;;;-3.40;56.55;101737.73;452562;115;930422;-71
2023/01/27 01:33:36;;;;;;;48.26;34.85;;;;;;;-3.40;56.43;101740.40;455560;116;922504;-71
2023/01/27 01:34:39;;;;;;;44.44;34.38;;;;;;;-3.42;56.33;101736.96;448098;116;922647;-71
2023/01/27 01:35:43;;;;;;;43.59;34.56;;;;;;;-3.43;56.34;101739.75;448222;116;922604;-71
2023/01/27 01:36:46;;;;;;;41.03;31.71;;;;;;;-3.45;56.36;101729.17;448277;118;922382;-71
2023/01/27 01:37:53;;;;;;;36.24;30.54;;;;;;;-3.46;56.31;101724.78;449651;116;922638;-71
2023/01/27 01:39:01;;;;;;;41.93;31.18;;;;;;;-3.46;56.34;101726.59;455074;116;922310;-71
2023/01/27 01:40:01;;;;;;;33.87;29.42;;;;;;;-3.46;56.49;101716.79;449482;118;922433;-71
2023/01/27 01:41:05;;;;;;;37.72;27.85;;;;;;;-3.45;56.43;101721.17;453264;116;922447;-72
2023/01/27 01:42:08;;;;;;;37.08;30.38;;;;;;;-3.44;56.54;101716.70;455803;116;922525;-71
2023/01/27 01:43:15;;;;;;;33.81;28.34;;;;;;;-3.44;56.58;101712.23;455401;116;922886;-71
2023/01/27 01:44:26;;;;;;;31.04;27.32;;;;;;;-3.44;56.57;101712.23;455292;116;922477;-71
2023/01/27 01:45:38;;;;;;;32.18;27.62;;;;;;;-3.44;56.59;101714.89;452218;116;923042;-71
2023/01/27 01:46:41;;;;;;;30.83;27.37;;;;;;;-3.43;56.62;101718.42;452016;116;922817;-71
2023/01/27 01:47:44;;;;;;;36.73;28.60;;;;;;;-3.43;56.59;101716.61;448837;116;922451;-70
2023/01/27 01:48:55;;;;;;;34.23;28.14;;;;;;;-3.42;56.61;101710.30;453716;116;922497;-71
2023/01/27 01:49:58;;;;;;;34.83;26.94;;;;;;;-3.42;56.53;101718.30;453876;115;923181;-70
2023/01/27 01:51:09;;;;;;;36.15;27.83;;;;;;;-3.42;56.47;101718.30;455194;116;922498;-72
2023/01/27 01:52:16;;;;;;;32.41;27.99;;;;;;;-3.42;56.40;101714.80;454613;115;929013;-72
2023/01/27 01:53:26;;;;;;;32.88;27.14;;;;;;;-3.43;56.36;101716.61;452004;116;922529;-72
2023/01/27 01:54:33;;;;;;;34.54;27.97;;;;;;;-3.44;56.38;101720.23;455371;115;922576;-71
2023/01/27 01:55:38;;;;;;;35.22;29.34;;;;;;;-3.44;56.47;101714.89;455259;116;922716;-71
2023/01/27 01:56:54;;;;;;;37.39;27.68;;;;;;;-3.45;56.45;101713.17;447727;118;922472;-71
2023/01/27 01:57:57;;;;;;;36.36;28.81;;;;;;;-3.46;56.29;101711.45;448654;116;922997;-71
2023/01/27 01:59:04;;;;;;;39.15;29.06;;;;;;;-3.47;56.27;101720.40;447815;118;922943;-71
2023/01/27 02:00:09;;;;;;;38.46;30.31;;;;;;;-3.48;56.29;101718.72;452398;116;930564;-70
2023/01/27 02:01:18;;;;;;;40.59;30.08;;;;;;;-3.48;56.27;101718.72;448694;116;922279;-71
2023/01/27 02:02:24;;;;;;;46.82;31.62;;;;;;;-3.49;56.28;101721.47;446660;118;922577;-71
2023/01/27 02:03:29;;;;;;;42.94;31.48;;;;;;;-3.49;56.39;101719.66;453250;116;922525;-71
2023/01/27 02:04:39;;;;;;;48.92;33.29;;;;;;;-3.49;56.29;101713.47;452976;116;922982;-71
2023/01/27 02:05:44;;;;;;;46.14;33.69;;;;;;;-3.50;56.25;101714.42;455490;116;922908;-72
2023/01/27 02:06:51;;;;;;;43.46;32.99;;;;;;;-3.52;56.17;101718.98;453626;116;922652;-71
2023/01/27 02:08:14;;;;;;;41.42;32.97;;;;;;;-3.53;56.21;101723.45;454557;115;922426;-70
2023/01/27 02:09:20;;;;;;;41.07;33.48;;;;;;;-3.53;56.26;101725.29;457234;115;922599;-71
2023/01/27 02:10:24;;;;;;;40.45;32.58;;;;;;;-3.54;56.26;101728.91;456023;115;922950;-71
2023/01/27 02:11:27;;;;;;;40.78;31.95;;;;;;;-3.55;56.26;101725.37;455626;116;930286;-70
2023/01/27 02:12:31;;;;;;;46.16;32.15;;;;;;;-3.55;56.25;101729.85;455605;116;922920;-71
2023/01/27 02:13:34;;;;;;;41.33;30.10;;;;;;;-3.55;56.30;101730.70;457220;114;930283;-72
2023/01/27 02:14:40;;;;;;;35.99;30.14;;;;;;;-3.55;56.29;101736.05;457321;115;930314;-71
2023/01/27 02:15:43;;;;;;;38.96;32.24;;;;;;;-3.54;56.28;101737.77;456010;116;930699;-71
2023/01/27 02:16:46;;;;;;;37.59;31.44;;;;;;;-3.55;56.19;101728.05;455652;116;923425;-71
2023/01/27 02:17:52;;;;;;;36.96;31.13;;;;;;;-3.54;56.28;101735.09;456650;116;930491;-70
2023/01/27 02:18:55;;;;;;;42.87;32.35;;;;;;;-3.54;56.25;101724.44;450004;116;922551;-72
2023/01/27 02:20:18;;;;;;;41.39;33.42;;;;;;;-3.54;56.26;101728.91;448787;118;922472;-71
2023/01/27 02:21:21;;;;;;;39.23;31.40;;;;;;;-3.54;56.19;101728.91;457195;116;930338;-71
2023/01/27 02:22:37;;;;;;;39.75;30.92;;;;;;;-3.56;56.08;101728.13;456875;115;922889;-71
2023/01/27 02:23:55;;;;;;;35.74;30.25;;;;;;;-3.57;56.19;101731.75;457153;116;922441;-71
2023/01/27 02:25:03;;;;;;;40.61;29.74;;;;;;;-3.59;56.06;101731.86;457154;116;922555;-71
2023/01/27 02:26:21;;;;;;;38.45;30.81;;;;;;;-3.62;55.89;101736.52;455311;115;922570;-71
2023/01/27 02:27:25;;;;;;;35.61;29.75;;;;;;;-3.66;55.99;101733.19;455295;116;923237;-72
2023/01/27 02:28:29;;;;;;;37.03;30.14;;;;;;;-3.68;55.87;101737.75;457017;114;922465;-72
2023/01/27 02:29:33;;;;;;;36.94;30.28;;;;;;;-3.72;56.01;101730.05;457073;116;922595;-71
2023/01/27 02:30:36;;;;;;;38.69;30.57;;;;;;;-3.72;56.01;101730.05;449311;117;930974;-71
2023/01/27 02:31:40;;;;;;;33.05;29.14;;;;;;;-3.72;56.03;101735.37;445648;118;922557;-71
2023/01/27 02:32:46;;;;;;;35.73;30.73;;;;;;;-3.73;56.00;101731.85;450051;116;930425;-71
2023/01/27 02:33:54;;;;;;;39.87;30.56;;;;;;;-3.72;56.11;101736.23;456611;115;922516;-71
2023/01/27 02:34:57;;;;;;;36.02;30.96;;;;;;;-3.72;56.06;101741.56;452694;117;922633;-71
2023/01/27 02:36:07;;;;;;;33.65;29.82;;;;;;;-3.72;55.93;101743.37;454448;116;922557;-71
2023/01/27 02:37:12;;;;;;;33.34;28.56;;;;;;;-3.72;55.99;101738.04;450512;116;922471;-71
2023/01/27 02:38:20;;;;;;;33.88;28.81;;;;;;;-3.73;55.99;101738.98;453478;116;922975;-71
2023/01/27 02:39:26;;;;;;;32.95;28.19;;;;;;;-3.75;55.93;101740.91;453260;116;922482;-71
2023/01/27 02:40:31;;;;;;;32.00;28.92;;;;;;;-3.76;55.84;101739.19;452681;117;922564;-71
2023/01/27 02:41:44;;;;;;;32.35;27.81;;;;;;;-3.79;55.89;101733.09;454927;116;923159;-71
2023/01/27 02:42:47;;;;;;;32.13;28.37;;;;;;;-3.80;55.93;101741.17;440670;116;922622;-72
2023/01/27 02:43:51;;;;;;;33.00;29.38;;;;;;;-3.80;55.85;101734.03;450408;116;922692;-71
2023/01/27 02:44:57;;;;;;;33.53;29.94;;;;;;;-3.79;55.97;101734.89;457309;116;922473;-71
2023/01/27 02:46:00;;;;;;;36.61;30.09;;;;;;;-3.79;56.07;101729.56;449994;116;930558;-71
2023/01/27 02:47:06;;;;;;;35.23;28.97;;;;;;;-3.80;55.91;101728.70;457194;116;922663;-70
2023/01/27 02:48:09;;;;;;;32.00;28.64;;;;;;;-3.79;55.94;101729.56;453225;114;922694;-71
2023/01/27 02:49:13;;;;;;;33.04;29.57;;;;;;;-3.79;55.98;101734.89;456776;115;922573;-71
2023/01/27 02:50:17;;;;;;;34.44;29.10;;;;;;;-3.81;56.03;101735.02;452817;117;922555;-71
2023/01/27 02:51:20;;;;;;;39.11;28.75;;;;;;;-3.81;55.89;101729.68;453487;115;922556;-72
2023/01/27 02:52:23;;;;;;;31.99;28.48;;;;;;;-3.82;55.89;101719.97;457175;116;922492;-72
2023/01/27 02:53:27;;;;;;;33.61;29.86;;;;;;;-3.82;56.05;101724.44;456431;114;922516;-71
2023/01/27 02:54:31;;;;;;;36.38;29.38;;;;;;;-3.81;56.13;101724.35;446725;118;930621;-69
2023/01/27 02:55:34;;;;;;;33.05;28.26;;;;;;;-3.81;56.08;101720.83;440391;117;922519;-72
2023/01/27 02:56:37;;;;;;;37.12;30.17;;;;;;;-3.80;56.10;101722.52;449435;117;922630;-72
2023/01/27 02:57:41;;;;;;;33.99;30.21;;;;;;;-3.79;56.23;101717.09;446341;117;922645;-71
2023/01/27 02:59:03;;;;;;;36.80;29.56;;;;;;;-3.80;56.12;101720.70;445061;118;922563;-72
2023/01/27 03:00:12;;;;;;;36.06;30.52;;;;;;;-3.80;56.28;101720.70;449291;117;922544;-70
2023/01/27 03:01:14;;;;;;;38.57;30.49;;;;;;;-3.81;56.32;101727.02;452258;116;922506;-72
2023/01/27 03:02:21;;;;;;;34.90;30.08;;;;;;;-3.81;56.35;101726.16;455020;115;922676;-71
2023/01/27 03:03:22;;;;;;;35.66;28.25;;;;;;;-3.80;56.24;101722.52;455552;115;922530;-71
2023/01/27 03:04:25;;;;;;;34.10;28.17;;;;;;;-3.81;56.23;101721.69;456964;115;922558;-71
2023/01/27 03:05:29;;;;;;;29.62;26.68;;;;;;;-3.82;56.17;101717.30;454271;116;922519;-71
2023/01/27 03:06:32;;;;;;;37.24;29.41;;;;;;;-3.80;56.23;101714.52;444594;117;923073;-71
2023/01/27 03:07:35;;;;;;;37.53;30.96;;;;;;;-3.81;56.16;101715.50;446040;116;922516;-72
2023/01/27 03:08:38;;;;;;;34.29;29.13;;;;;;;-3.81;55.94;101719.02;456415;115;922492;-72
2023/01/27 03:09:42;;;;;;;42.39;30.62;;;;;;;-3.81;55.94;101719.02;451881;117;922990;-71
2023/01/27 03:10:50;;;;;;;36.49;30.07;;;;;;;-3.81;56.15;101719.02;451889;117;930428;-71
2023/01/27 03:13:23;;;;;;;32.97;27.27;;;;;;;-3.83;56.03;101707.59;455543;116;922694;-72
2023/01/27 03:18:46;;;;;;;36.75;27.89;;;;;;;-3.95;55.89;101700.35;457139;116;922573;-71
2023/01/27 03:19:52;;;;;;;32.22;26.33;;;;;;;-3.98;55.84;101697.89;457194;115;922624;-71
2023/01/27 03:20:51;;;;;;;30.73;27.62;;;;;;;-4.00;55.89;101707.77;457126;115;922525;-71
2023/01/27 03:21:55;;;;;;;32.28;28.46;;;;;;;-4.01;55.88;101703.39;457300;114;922523;-71
2023/01/27 03:23:00;;;;;;;31.58;28.09;;;;;;;-4.01;55.76;101702.53;446890;117;922664;-71
2023/01/27 03:24:04;;;;;;;30.84;27.41;;;;;;;-4.03;55.78;101699.98;450720;116;922893;-71
2023/01/27 03:25:08;;;;;;;31.75;28.10;;;;;;;-4.04;55.74;101702.73;457463;115;930605;-70
2023/01/27 03:26:12;;;;;;;31.31;28.08;;;;;;;-4.05;55.55;101699.21;457634;114;922524;-71
2023/01/27 03:27:17;;;;;;;31.37;28.09;;;;;;;-4.05;55.52;101701.02;447310;116;922595;-71
2023/01/27 03:28:37;;;;;;;32.94;26.38;;;;;;;-4.05;55.65;101699.21;429311;123;922662;-71
2023/01/27 03:29:53;;;;;;;29.11;25.91;;;;;;;-3.95;55.64;101695.02;477162;110;947197;-72
2023/01/27 03:31:06;;;;;;;32.41;26.83;;;;;;;-4.08;55.61;101694.05;465468;114;922869;-72
2023/01/27 03:32:11;;;;;;;28.70;25.15;;;;;;;-4.08;55.63;101685.23;461473;113;922576;-71
2023/01/27 03:33:19;;;;;;;29.69;26.60;;;;;;;-4.11;55.56;101691.59;458229;114;922631;-71
2023/01/27 03:34:30;;;;;;;41.35;29.47;;;;;;;-4.12;55.57;101695.20;457304;116;930418;-71
2023/01/27 03:35:38;;;;;;;42.06;31.43;;;;;;;-4.14;55.50;101694.45;459241;115;922641;-72
2023/01/27 03:46:21;;;;;;;30.01;26.69;;;;;;;-4.37;55.60;101698.51;457392;116;922992;-70
2023/01/27 03:47:25;;;;;;;34.47;27.90;;;;;;;-4.38;55.64;101698.59;458782;114;922820;-72
2023/01/27 03:48:30;;;;;;;30.74;27.11;;;;;;;-4.40;55.66;101695.16;458786;114;922597;-71
2023/01/27 03:49:33;;;;;;;28.56;25.68;;;;;;;-4.41;55.67;101696.95;457832;115;922840;-71
2023/01/27 03:50:42;;;;;;;32.02;27.35;;;;;;;-4.41;55.67;101696.95;457480;115;922862;-71
2023/01/27 03:51:41;;;;;;;35.85;27.82;;;;;;;-4.40;55.65;101687.17;460475;115;922494;-71
2023/01/27 03:53:01;;;;;;;36.40;29.43;;;;;;;-4.41;55.64;101696.12;461114;114;922479;-71
2023/01/27 03:53:50;;;;;;;32.82;28.99;;;;;;;-4.40;55.66;101693.35;454757;116;922425;-70
2023/01/27 03:54:54;;;;;;;33.39;28.42;;;;;;;-4.40;55.62;101689.83;457332;116;922626;-72
2023/01/27 03:55:57;;;;;;;35.49;28.68;;;;;;;-4.39;55.59;101686.23;466187;113;922715;-70
2023/01/27 03:57:04;;;;;;;35.13;27.44;;;;;;;-4.39;55.68;101686.23;460932;113;922814;-73
2023/01/27 03:58:17;;;;;;;34.06;28.79;;;;;;;-4.39;55.59;101686.23;456064;114;930516;-71
2023/01/27 03:59:19;;;;;;;33.83;29.93;;;;;;;-4.40;55.70;101688.03;456408;115;923158;-71
2023/01/27 04:00:23;;;;;;;33.28;29.49;;;;;;;-4.38;55.64;101691.47;455918;116;922648;-70
2023/01/27 04:01:26;;;;;;;36.79;29.29;;;;;;;-4.38;55.61;101688.80;460425;115;922556;-71
2023/01/27 04:06:54;;;;;;;29.15;25.74;;;;;;;-4.39;55.55;101688.89;461680;115;922868;-71
2023/01/27 04:07:57;;;;;;;34.96;27.28;;;;;;;-4.40;55.57;101696.02;463081;113;922553;-72
2023/01/27 04:09:01;;;;;;;33.51;27.22;;;;;;;-4.43;55.54;101693.55;451183;117;923055;-72
2023/01/27 04:10:05;;;;;;;32.34;26.20;;;;;;;-4.43;55.55;101695.35;457507;115;922730;-72
2023/01/27 04:12:29;;;;;;;33.46;26.53;;;;;;;-4.45;55.49;101679.47;458440;114;922543;-72
2023/01/27 04:13:32;;;;;;;31.10;26.61;;;;;;;-4.46;55.57;101683.07;457770;114;922817;-72
2023/01/27 04:14:37;;;;;;;28.62;25.23;;;;;;;-4.46;55.61;101687.53;458749;114;922810;-71
2023/01/27 04:15:40;;;;;;;27.77;24.69;;;;;;;-4.46;55.50;101679.55;458940;115;922529;-71
2023/01/27 04:16:44;;;;;;;29.21;24.80;;;;;;;-4.46;55.55;101679.55;458686;115;922509;-71
2023/01/27 04:17:47;;;;;;;29.94;25.88;;;;;;;-4.45;55.40;101678.61;457488;114;922538;-72
2023/01/27 04:18:50;;;;;;;31.89;27.11;;;;;;;-4.44;55.41;101680.33;457480;116;930374;-70
2023/01/27 04:19:53;;;;;;;32.85;29.12;;;;;;;-4.44;55.48;101680.33;453393;117;922524;-71
2023/01/27 04:20:57;;;;;;;31.07;27.66;;;;;;;-4.44;55.45;101680.33;453418;117;922585;-70
2023/01/27 04:22:00;;;;;;;31.21;27.68;;;;;;;-4.44;55.27;101688.31;457506;115;922889;-73
2023/01/27 04:23:03;;;;;;;33.07;25.93;;;;;;;-4.43;55.22;101687.37;459862;114;923485;-72
2023/01/27 04:24:16;;;;;;;29.10;24.59;;;;;;;-4.44;55.17;101689.17;459831;115;930396;-72
2023/01/27 04:25:15;;;;;;;29.67;26.77;;;;;;;-4.44;55.16;101691.83;460630;115;922589;-71
2023/01/27 04:26:19;;;;;;;29.95;26.93;;;;;;;-4.44;55.27;101688.31;459333;114;922600;-71
2023/01/27 04:27:22;;;;;;;31.26;27.34;;;;;;;-4.44;55.14;101683.84;455780;114;922804;-71
2023/01/27 04:28:26;;;;;;;34.32;28.96;;;;;;;-4.44;55.13;101688.31;457316;116;930445;-71
2023/01/27 04:29:39;;;;;;;33.59;27.78;;;;;;;-4.44;55.17;101688.31;455374;115;922561;-72
2023/01/27 04:30:38;;;;;;;32.02;28.13;;;;;;;-4.43;55.26;101695.35;458141;115;922741;-72
2023/01/27 04:31:42;;;;;;;33.99;28.99;;;;;;;-4.45;55.04;101691.91;458083;115;922476;-71
2023/01/27 04:32:45;;;;;;;34.82;28.71;;;;;;;-4.47;54.94;101691.17;454947;116;922530;-71
2023/01/27 04:33:48;;;;;;;35.68;31.02;;;;;;;-4.48;54.85;101698.30;457473;115;930841;-72
2023/01/27 04:34:51;;;;;;;34.67;30.62;;;;;;;-4.48;54.88;101697.44;458075;114;922645;-71
2023/01/27 04:35:55;;;;;;;39.13;31.84;;;;;;;-4.49;54.88;101696.58;449698;118;922889;-71
2023/01/27 04:37:03;;;;;;;44.22;33.81;;;;;;;-4.50;55.00;101696.66;449592;118;922448;-71
2023/01/27 04:38:03;;;;;;;40.82;32.81;;;;;;;-4.50;54.96;101699.32;452005;116;922576;-71
2023/01/27 04:39:07;;;;;;;37.78;30.91;;;;;;;-4.49;55.14;101701.03;457591;116;922640;-70
2023/01/27 04:40:12;;;;;;;32.78;29.19;;;;;;;-4.48;55.11;101700.09;457110;115;923013;-72
2023/01/27 04:41:15;;;;;;;36.86;28.23;;;;;;;-4.47;55.10;101707.14;460962;115;922625;-72
2023/01/27 04:42:19;;;;;;;34.67;30.66;;;;;;;-4.46;55.09;101706.16;458613;114;922648;-71
2023/01/27 04:43:22;;;;;;;38.49;32.03;;;;;;;-4.46;55.12;101703.50;456883;114;922847;-71
2023/01/27 04:44:28;;;;;;;36.75;32.51;;;;;;;-4.47;54.95;101704.48;456151;116;922429;-71
2023/01/27 04:45:36;;;;;;;46.61;31.69;;;;;;;-4.48;54.97;101703.62;458252;115;922802;-72
2023/01/27 04:46:37;;;;;;;41.17;32.06;;;;;;;-4.48;55.04;101700.09;458962;115;922519;-72
2023/01/27 04:47:40;;;;;;;39.29;30.75;;;;;;;-4.50;54.97;101708.16;459200;114;922611;-72
2023/01/27 04:48:44;;;;;;;43.58;29.24;;;;;;;-4.48;54.95;101710.74;455564;116;923052;-72
2023/01/27 04:49:47;;;;;;;34.79;28.26;;;;;;;-4.48;55.00;101716.06;455272;116;922649;-72
2023/01/27 04:50:50;;;;;;;30.32;27.08;;;;;;;-4.49;54.92;101715.20;454736;115;922501;-72
2023/01/27 04:51:54;;;;;;;33.97;27.75;;;;;;;-4.49;55.02;101719.67;453905;117;922833;-72
2023/01/27 04:52:57;;;;;;;33.18;29.45;;;;;;;-4.50;54.87;101715.29;454913;114;922484;-71
2023/01/27 04:54:02;;;;;;;35.96;28.98;;;;;;;-4.51;54.95;101719.75;457714;114;922516;-71
2023/01/27 04:55:06;;;;;;;40.14;32.45;;;;;;;-4.50;54.76;101715.29;460092;115;922575;-72
2023/01/27 04:56:19;;;;;;;41.39;33.45;;;;;;;-4.51;54.78;101713.56;459393;115;922484;-72
2023/01/27 04:57:22;;;;;;;43.35;35.01;;;;;;;-4.53;54.77;101720.80;460438;115;922544;-72
2023/01/27 04:58:25;;;;;;;45.88;36.97;;;;;;;-4.54;54.79;101713.77;457243;116;922825;-72
2023/01/27 04:59:29;;;;;;;52.49;39.67;;;;;;;-4.55;54.74;101720.89;456099;115;922495;-73
2023/01/27 05:00:35;;;;;;;58.54;42.24;;;;;;;-4.55;54.75;101718.23;456559;115;922666;-72
2023/01/27 05:01:38;;;;;;;67.47;50.69;;;;;;;-4.56;54.82;101713.84;455999;114;930421;-73
2023/01/27 05:02:41;;;;;;;65.14;48.19;;;;;;;-4.54;54.71;101724.41;454048;115;922961;-71
2023/01/27 05:03:47;;;;;;;66.14;46.21;;;;;;;-4.55;54.69;101723.55;449644;117;922524;-71
2023/01/27 05:04:50;;;;;;;61.56;45.07;;;;;;;-4.54;54.79;101729.73;458008;115;922747;-78
2023/01/27 05:05:54;;;;;;;58.63;45.93;;;;;;;-4.54;54.66;101724.41;457951;115;922425;-74
2023/01/27 05:06:57;;;;;;;52.91;42.55;;;;;;;-4.54;54.63;101724.41;458332;114;922558;-72
2023/01/27 05:08:07;;;;;;;51.14;38.36;;;;;;;-4.54;54.58;101729.73;457306;114;922666;-72
2023/01/27 05:09:10;;;;;;;47.79;36.72;;;;;;;-4.54;54.57;101727.07;462513;114;922481;-72
2023/01/27 05:10:14;;;;;;;42.34;35.70;;;;;;;-4.55;54.64;101728.02;460738;115;922979;-71
2023/01/27 05:11:17;;;;;;;46.06;37.26;;;;;;;-4.56;54.57;101728.95;458993;115;922547;-72
2023/01/27 05:12:21;;;;;;;52.25;37.15;;;;;;;-4.56;54.54;101726.29;460127;115;922502;-70
2023/01/27 05:13:24;;;;;;;38.44;33.49;;;;;;;-4.57;54.54;101729.89;457291;116;922550;-72
2023/01/27 05:14:27;;;;;;;37.94;31.25;;;;;;;-4.58;54.52;101718.42;457901;115;922520;-71
2023/01/27 05:15:33;;;;;;;41.54;32.88;;;;;;;-4.57;54.64;101724.57;461772;115;922453;-72
2023/01/27 05:16:37;;;;;;;39.64;29.88;;;;;;;-4.57;54.58;101725.43;458536;114;922493;-73
2023/01/27 05:17:41;;;;;;;38.96;30.21;;;;;;;-4.57;54.68;101724.57;461054;114;922503;-75
2023/01/27 05:18:46;;;;;;;38.33;30.69;;;;;;;-4.57;54.55;101721.91;449591;118;922476;-72
2023/01/27 05:19:49;;;;;;;42.53;29.82;;;;;;;-4.57;54.54;101724.57;454225;116;930482;-71
2023/01/27 05:20:53;;;;;;;39.44;30.55;;;;;;;-4.57;54.63;101730.75;455672;116;922633;-73
2023/01/27 05:21:56;;;;;;;35.69;30.56;;;;;;;-4.57;54.49;101725.43;456831;114;922912;-73
2023/01/27 05:24:14;;;;;;;33.31;28.88;;;;;;;-4.47;54.56;101729.29;468940;110;947075;-73
2023/01/27 05:25:17;;;;;;;34.98;27.44;;;;;;;-4.58;54.49;101730.87;461573;114;922526;-71